Time;durP1;ratioP1;P1;durP2;ratioP2;P2;SDS_P1;SDS_P2;PMS_P1;PMS_P2;Temp;Humidity;BMP_temperature;BMP_pressure;BME280_temperature;BME280_humidity;BME280_pressure;Samples;Min_cycle;Max_cycle;Signal;HPM_P1;HPM_P2
2024/04/12 00:01:14;;;;;;;9.18;3.65;;;;;;;13.86;100.00;99742.00;5426217;26;19968;-66
2024/04/12 00:03:41;;;;;;;9.25;3.53;;;;;;;13.96;100.00;99730.59;5457825;26;20147;-65
2024/04/12 00:06:17;;;;;;;9.20;3.55;;;;;;;14.01;100.00;99741.44;5400637;26;20036;-66
2024/04/12 00:08:49;;;;;;;7.03;3.45;;;;;;;13.77;100.00;99727.97;5391618;26;19999;-66
2024/04/12 00:11:19;;;;;;;11.45;5.20;;;;;;;13.95;100.00;99736.78;5403222;26;20374;-65
2024/04/12 00:13:46;;;;;;;6.65;3.63;;;;;;;14.07;100.00;99734.00;5400172;26;19999;-65
2024/04/12 00:16:11;;;;;;;7.72;3.75;;;;;;;14.09;100.00;99730.31;5420994;26;20028;-66
2024/04/12 00:18:37;;;;;;;7.13;3.53;;;;;;;14.07;100.00;99732.19;5434423;26;19999;-66
2024/04/12 00:21:05;;;;;;;8.95;3.78;;;;;;;14.08;100.00;99723.41;5436644;26;20002;-66
2024/04/12 00:23:32;;;;;;;7.63;3.72;;;;;;;14.09;100.00;99721.59;5408086;26;19995;-64
2024/04/12 00:26:00;;;;;;;9.10;4.45;;;;;;;14.13;100.00;99733.47;5496745;25;20445;-68
2024/04/12 00:28:32;;;;;;;10.63;4.13;;;;;;;14.01;100.00;99736.19;5401316;26;20003;-66
2024/04/12 00:31:02;;;;;;;8.73;4.43;;;;;;;13.98;100.00;99717.34;5426331;26;20438;-68
2024/04/12 00:33:31;;;;;;;8.50;4.30;;;;;;;13.82;100.00;99723.97;5397818;26;19999;-67
2024/04/12 00:36:07;;;;;;;7.00;3.90;;;;;;;13.70;100.00;99732.91;5405959;26;20854;-69
2024/04/12 00:38:36;;;;;;;8.95;3.47;;;;;;;13.82;100.00;99729.22;5383722;26;20088;-69
2024/04/12 00:41:14;;;;;;;7.07;3.80;;;;;;;13.87;100.00;99734.00;5422638;26;20015;-66
2024/04/12 00:43:45;;;;;;;8.43;3.75;;;;;;;13.89;100.00;99728.66;5404904;26;20007;-66
2024/04/12 00:46:14;;;;;;;8.63;3.70;;;;;;;13.99;100.00;99726.84;5429149;26;20084;-66
2024/04/12 00:48:42;;;;;;;10.10;4.00;;;;;;;13.80;100.00;99728.53;5438526;26;19999;-66
2024/04/12 00:51:15;;;;;;;10.70;4.13;;;;;;;13.42;100.00;99729.34;5402576;26;20003;-67
2024/04/12 00:53:42;;;;;;;6.53;3.70;;;;;;;13.28;100.00;99725.28;5435776;26;20003;-65
2024/04/12 00:56:13;;;;;;;5.93;3.60;;;;;;;13.42;100.00;99739.78;5425250;26;20005;-65
2024/04/12 00:58:41;;;;;;;8.00;3.72;;;;;;;13.42;100.00;99742.41;5426074;26;19996;-67
2024/04/12 01:01:26;;;;;;;6.90;3.53;;;;;;;13.12;100.00;99743.25;5399813;26;20001;-65
2024/04/12 01:03:55;;;;;;;10.32;3.70;;;;;;;13.00;100.00;99745.16;5413878;26;20018;-67
2024/04/12 01:06:26;;;;;;;8.00;4.03;;;;;;;12.92;100.00;99743.19;5434974;26;20026;-68
2024/04/12 01:08:54;;;;;;;8.73;3.97;;;;;;;12.87;100.00;99743.59;5426655;26;19999;-66
2024/04/12 01:11:21;;;;;;;10.00;4.10;;;;;;;13.02;100.00;99738.00;5399685;26;20013;-65
2024/04/12 01:13:50;;;;;;;7.50;4.10;;;;;;;13.05;100.00;99745.56;5455401;26;20002;-65
2024/04/12 01:16:18;;;;;;;10.02;4.18;;;;;;;12.93;100.00;99739.63;5404711;26;20019;-67
2024/04/12 01:18:45;;;;;;;7.05;3.92;;;;;;;13.11;100.00;99737.22;5430066;26;20050;-66
2024/04/12 01:21:13;;;;;;;8.55;4.03;;;;;;;13.02;100.00;99706.69;5429590;26;20011;-66
2024/04/12 01:23:43;;;;;;;8.73;3.90;;;;;;;13.37;100.00;99739.34;5458803;26;20010;-68
2024/04/12 01:26:09;;;;;;;;;;;;;;;13.46;100.00;99741.16;5403436;26;20019;-66
2024/04/12 01:28:36;;;;;;;8.60;3.70;;;;;;;13.25;100.00;99742.06;5429678;26;20808;-66
2024/04/12 01:31:02;;;;;;;6.20;3.42;;;;;;;13.04;100.00;99736.09;5424328;26;20452;-66
2024/04/12 01:33:31;;;;;;;9.95;3.08;;;;;;;12.88;100.00;99719.13;5481984;25;19991;-68
2024/04/12 01:36:10;;;;;;;9.05;3.60;;;;;;;13.01;100.00;99752.00;5399807;26;19994;-69
2024/04/12 01:38:39;;;;;;;6.73;3.67;;;;;;;12.85;100.00;99742.91;5402983;26;20003;-68
2024/04/12 01:41:05;;;;;;;10.68;3.92;;;;;;;12.99;100.00;99741.69;5425027;26;20576;-66
2024/04/12 01:43:38;;;;;;;7.20;4.40;;;;;;;13.21;100.00;99743.25;5400533;26;20169;-66
2024/04/12 01:46:07;;;;;;;8.63;3.90;;;;;;;13.22;100.00;99744.94;5428785;26;20007;-66
2024/04/12 01:48:34;;;;;;;8.23;4.28;;;;;;;13.30;100.00;99746.03;5424579;26;20022;-65
2024/04/12 01:51:03;;;;;;;6.43;3.25;;;;;;;13.36;100.00;99735.09;5436704;26;20090;-66
2024/04/12 01:53:38;;;;;;;;;;;;;;;13.42;100.00;99745.00;5426860;26;19998;-67
2024/04/12 01:56:13;;;;;;;7.13;3.60;;;;;;;13.46;100.00;99741.97;5427118;26;19990;-67
2024/04/12 01:58:40;;;;;;;5.93;3.05;;;;;;;13.39;100.00;99735.63;5428163;26;19995;-66
2024/04/12 02:01:10;;;;;;;9.05;3.60;;;;;;;13.44;100.00;99750.91;5428167;26;20091;-67
2024/04/12 02:03:37;;;;;;;8.82;3.30;;;;;;;13.63;100.00;99745.72;5401769;26;20013;-66
2024/04/12 02:06:05;;;;;;;7.93;2.90;;;;;;;13.43;100.00;99712.69;5402610;26;19999;-66
2024/04/12 02:08:32;;;;;;;6.20;3.08;;;;;;;13.69;100.00;99741.75;5429904;26;20119;-65
2024/04/12 02:10:58;;;;;;;7.00;3.25;;;;;;;13.62;100.00;99738.03;5437224;26;20105;-69
2024/04/12 02:13:23;;;;;;;8.82;3.03;;;;;;;13.78;100.00;99742.69;5430133;26;20008;-66
2024/04/12 02:15:51;;;;;;;8.45;3.20;;;;;;;13.67;100.00;99742.81;5400003;26;20031;-66
2024/04/12 02:18:21;;;;;;;8.55;2.80;;;;;;;13.60;100.00;99734.72;5458059;25;20204;-65
2024/04/12 02:20:51;;;;;;;13.13;3.33;;;;;;;13.72;100.00;99743.25;5411787;26;20003;-69
2024/04/12 02:23:19;;;;;;;6.30;3.08;;;;;;;13.58;100.00;99693.03;5429785;26;20011;-66
2024/04/12 02:25:47;;;;;;;7.65;3.17;;;;;;;13.77;100.00;99728.78;5432861;26;20003;-67
2024/04/12 02:28:18;;;;;;;6.13;2.70;;;;;;;13.68;100.00;99713.13;5430997;26;20530;-68
2024/04/12 02:30:45;;;;;;;6.22;2.75;;;;;;;13.59;100.00;99697.28;5443585;26;20007;-67
2024/04/12 02:33:20;;;;;;;6.65;2.80;;;;;;;13.64;100.00;99736.09;5418007;26;20560;-66
2024/04/12 02:35:46;;;;;;;7.43;2.97;;;;;;;13.57;100.00;99737.59;5439378;26;20018;-66
2024/04/12 02:38:15;;;;;;;7.03;3.20;;;;;;;13.07;100.00;99699.28;5435576;26;20854;-67
2024/04/12 02:40:45;;;;;;;9.25;2.90;;;;;;;13.24;100.00;99739.56;5427728;26;20002;-67
2024/04/12 02:43:11;;;;;;;8.30;3.00;;;;;;;13.33;100.00;99727.53;5398897;26;20018;-66
2024/04/12 02:45:36;;;;;;;5.63;2.45;;;;;;;13.15;100.00;99728.16;5411856;26;20453;-67
2024/04/12 02:48:06;;;;;;;8.27;2.70;;;;;;;13.33;100.00;99730.16;5416949;26;20005;-67
2024/04/12 02:50:32;;;;;;;6.40;2.75;;;;;;;13.21;100.00;99734.63;5446910;26;19999;-66
2024/04/12 02:52:58;;;;;;;7.90;3.08;;;;;;;13.11;100.00;99745.03;5447940;26;19999;-68
2024/04/12 02:55:30;;;;;;;7.53;3.00;;;;;;;13.07;100.00;99743.66;5455390;26;19994;-68
2024/04/12 02:57:56;;;;;;;8.15;3.17;;;;;;;12.94;100.00;99730.84;5435454;26;19994;-67
2024/04/12 03:00:25;;;;;;;6.93;3.08;;;;;;;12.81;100.00;99736.31;5411683;26;20017;-66
2024/04/12 03:02:52;;;;;;;8.85;3.25;;;;;;;12.94;100.00;99732.59;5445582;26;20046;-68
2024/04/12 03:05:22;;;;;;;8.52;3.10;;;;;;;13.11;100.00;99734.59;5409880;26;20082;-66
2024/04/12 03:07:51;;;;;;;7.70;3.45;;;;;;;13.21;100.00;99721.56;5447034;26;20013;-67
2024/04/12 03:10:20;;;;;;;7.65;3.10;;;;;;;13.11;100.00;99690.22;5445657;26;20091;-66
2024/04/12 03:12:46;;;;;;;6.68;2.80;;;;;;;13.10;100.00;99699.00;5448718;26;20046;-66
2024/04/12 03:15:11;;;;;;;7.05;2.97;;;;;;;13.03;100.00;99703.94;5442786;26;20094;-65
2024/04/12 03:17:36;;;;;;;6.18;2.97;;;;;;;13.33;100.00;99732.75;5441797;26;20010;-66
2024/04/12 03:20:03;;;;;;;6.60;2.78;;;;;;;13.47;100.00;99734.97;5442490;26;20002;-67
2024/04/12 03:22:30;;;;;;;7.85;2.50;;;;;;;13.62;100.00;99736.22;5417218;26;20031;-67
2024/04/12 03:24:56;;;;;;;5.05;2.40;;;;;;;13.48;100.00;99701.84;5441365;26;20099;-67
2024/04/12 03:27:22;;;;;;;8.23;2.55;;;;;;;13.62;100.00;99693.59;5440882;26;19995;-66
2024/04/12 03:29:49;;;;;;;5.63;2.47;;;;;;;13.79;100.00;99728.66;5412194;26;20010;-65
2024/04/12 03:32:19;;;;;;;4.90;2.35;;;;;;;13.81;100.00;99731.97;5431381;26;19999;-66
2024/04/12 03:34:44;;;;;;;5.68;2.42;;;;;;;14.02;100.00;99748.31;5438995;26;20010;-65
2024/04/12 03:37:36;;;;;;;6.88;3.22;;;;;;;13.80;100.00;99731.13;5451905;26;20099;-66
2024/04/12 03:40:20;;;;;;;7.25;2.65;;;;;;;13.73;100.00;99744.91;5413925;26;20012;-66
2024/04/12 03:42:46;;;;;;;6.97;2.90;;;;;;;13.23;100.00;99701.34;5420940;26;20527;-66
2024/04/12 03:45:15;;;;;;;8.32;2.60;;;;;;;13.21;100.00;99743.25;5442108;26;20006;-66
2024/04/12 03:47:50;;;;;;;5.18;2.85;;;;;;;13.12;100.00;99740.63;5481637;25;20536;-66
2024/04/12 03:50:17;;;;;;;6.95;2.95;;;;;;;12.92;100.00;99743.19;5446010;26;20341;-66
2024/04/12 03:52:48;;;;;;;10.38;3.55;;;;;;;12.79;100.00;99700.84;5440908;26;20003;-65
2024/04/12 03:55:13;;;;;;;7.32;2.70;;;;;;;12.94;100.00;99735.22;5446009;26;20074;-65
2024/04/12 03:57:39;;;;;;;6.15;2.67;;;;;;;13.01;100.00;99746.78;5458838;26;19999;-65
2024/04/12 04:00:13;;;;;;;6.60;2.70;;;;;;;13.04;100.00;99743.91;5422600;26;19999;-67
2024/04/12 04:02:48;;;;;;;7.82;2.42;;;;;;;13.20;100.00;99752.06;5442626;26;20357;-65
2024/04/12 04:05:14;;;;;;;7.53;2.50;;;;;;;13.50;100.00;99745.16;5422271;26;20020;-66
2024/04/12 04:07:46;;;;;;;10.25;2.55;;;;;;;13.46;100.00;99705.41;5444440;26;20490;-66
2024/04/12 04:10:15;;;;;;;5.88;2.25;;;;;;;13.44;100.00;99745.69;5453070;26;19998;-66
2024/04/12 04:12:44;;;;;;;7.97;2.90;;;;;;;13.32;100.00;99744.97;5457657;26;20586;-66
2024/04/12 04:15:14;;;;;;;6.88;2.55;;;;;;;13.25;100.00;99738.59;5417328;26;20038;-66
2024/04/12 04:17:47;;;;;;;6.10;2.42;;;;;;;13.15;100.00;99746.41;5471814;26;20006;-65
2024/04/12 04:20:13;;;;;;;8.60;3.00;;;;;;;13.24;100.00;99753.44;5459352;26;20925;-66
2024/04/12 04:22:39;;;;;;;6.82;2.70;;;;;;;13.22;100.00;99728.44;5450957;26;20003;-65
2024/04/12 04:25:09;;;;;;;6.68;2.40;;;;;;;13.15;100.00;99696.81;5421976;26;20763;-65
2024/04/12 04:27:37;;;;;;;7.25;2.33;;;;;;;13.69;100.00;99746.97;5456053;26;20014;-65
2024/04/12 04:30:05;;;;;;;6.88;2.20;;;;;;;13.88;100.00;99735.66;5464976;26;20009;-64
2024/04/12 04:32:33;;;;;;;7.85;2.30;;;;;;;13.76;100.00;99732.38;5451212;26;20075;-65
2024/04/12 04:35:11;;;;;;;5.47;2.17;;;;;;;13.85;100.00;99746.41;5455054;26;19999;-65
2024/04/12 04:37:39;;;;;;;7.32;2.28;;;;;;;13.50;100.00;99752.97;5430176;26;20022;-68
2024/04/12 04:40:11;;;;;;;7.30;2.27;;;;;;;13.40;100.00;99741.72;5453030;26;21015;-66
2024/04/12 04:42:43;;;;;;;7.00;2.40;;;;;;;13.39;100.00;99751.31;5444485;26;20007;-66
2024/04/12 04:45:09;;;;;;;8.50;2.70;;;;;;;13.26;100.00;99750.72;5407180;26;20198;-67
2024/04/12 04:47:36;;;;;;;8.13;2.30;;;;;;;13.31;100.00;99742.53;5432535;26;20031;-65
2024/04/12 04:50:01;;;;;;;6.10;2.40;;;;;;;13.15;100.00;99727.31;5439752;26;19990;-68
2024/04/12 04:52:35;;;;;;;8.60;2.70;;;;;;;13.23;100.00;99751.81;5441833;26;20019;-68
2024/04/12 04:55:02;;;;;;;6.72;2.33;;;;;;;12.94;100.00;99727.38;5434703;26;20009;-66
2024/04/12 04:57:35;;;;;;;6.72;2.42;;;;;;;13.01;100.00;99754.63;5434957;26;20044;-67
2024/04/12 05:00:06;;;;;;;7.45;3.08;;;;;;;12.92;100.00;99758.84;5431266;26;19999;-66
2024/04/12 05:02:35;;;;;;;6.35;2.72;;;;;;;12.81;100.00;99735.44;5435961;26;19995;-68
2024/04/12 05:05:05;;;;;;;6.32;2.60;;;;;;;13.16;100.00;99771.59;5455509;26;20150;-68
2024/04/12 05:07:34;;;;;;;8.70;2.80;;;;;;;13.12;100.00;99766.75;5440688;26;19990;-65
2024/04/12 05:10:08;;;;;;;8.50;2.60;;;;;;;13.26;100.00;99769.00;5431023;26;20007;-65
2024/04/12 05:12:40;;;;;;;7.07;2.70;;;;;;;13.16;100.00;99762.91;5437960;26;20031;-67
2024/04/12 05:15:48;;;;;;;8.27;2.65;;;;;;;13.10;100.00;99766.06;5438847;26;19998;-66
2024/04/12 05:18:05;;;;;;;6.63;2.70;;;;;;;13.16;100.00;99766.38;5436813;26;20003;-66
2024/04/12 05:20:42;;;;;;;6.22;2.42;;;;;;;13.15;100.00;99771.72;5448331;26;20433;-66
2024/04/12 05:23:12;;;;;;;9.68;2.65;;;;;;;13.29;100.00;99760.91;5408402;26;19995;-68
2024/04/12 05:25:40;;;;;;;5.80;2.40;;;;;;;13.24;100.00;99758.69;5444881;26;19994;-68
2024/04/12 05:28:06;;;;;;;7.75;2.40;;;;;;;13.30;100.00;99764.34;5409211;26;20158;-66
2024/04/12 05:30:42;;;;;;;8.43;2.55;;;;;;;13.23;100.00;99779.69;5428616;26;19998;-65
2024/04/12 05:33:10;;;;;;;8.15;2.30;;;;;;;13.21;100.00;99784.22;5436183;26;20455;-68
2024/04/12 05:35:35;;;;;;;6.03;2.33;;;;;;;13.11;100.00;99768.53;5415208;26;19994;-66
2024/04/12 05:38:07;;;;;;;5.75;2.30;;;;;;;13.25;100.00;99777.78;5410144;26;20072;-65
2024/04/12 05:40:45;;;;;;;8.60;2.70;;;;;;;13.32;100.00;99770.28;5401617;26;19991;-67
2024/04/12 05:43:14;;;;;;;5.93;2.85;;;;;;;13.13;100.00;99752.75;5435487;26;20010;-66
2024/04/12 05:45:40;;;;;;;5.32;2.25;;;;;;;13.38;100.00;99781.03;5414403;26;19995;-65
2024/04/12 05:48:16;;;;;;;7.93;2.80;;;;;;;13.32;100.00;99781.53;5440238;26;20009;-66
2024/04/12 05:50:48;;;;;;;5.00;2.38;;;;;;;13.15;100.00;99779.56;5418752;26;20043;-67
2024/04/12 05:53:19;;;;;;;7.97;2.50;;;;;;;13.10;100.00;99771.28;5448088;26;20018;-68
2024/04/12 05:55:44;;;;;;;8.82;3.00;;;;;;;13.19;100.00;99783.53;5437411;26;20021;-69
2024/04/12 05:58:14;;;;;;;7.30;2.70;;;;;;;13.24;100.00;99789.19;5427381;26;20017;-67
2024/04/12 06:00:41;;;;;;;7.78;2.55;;;;;;;13.39;100.00;99785.28;5405026;26;20014;-66
2024/04/12 06:03:08;;;;;;;7.55;3.00;;;;;;;13.57;100.00;99789.84;5435476;26;19994;-68
2024/04/12 06:05:36;;;;;;;5.88;2.13;;;;;;;13.55;100.00;99784.75;5430038;26;20031;-66
2024/04/12 06:08:03;;;;;;;8.00;2.65;;;;;;;13.10;100.00;99790.38;5421348;26;20002;-66
2024/04/12 06:10:29;;;;;;;7.43;3.00;;;;;;;13.04;100.00;99752.56;5451916;26;19999;-67
2024/04/12 06:12:55;;;;;;;6.80;2.55;;;;;;;13.23;100.00;99785.78;5448827;26;19999;-68
2024/04/12 06:15:21;;;;;;;8.05;2.50;;;;;;;13.08;100.00;99753.13;5437791;26;20014;-64
2024/04/12 06:17:49;;;;;;;6.55;2.58;;;;;;;13.41;100.00;99801.63;5408488;26;20457;-67
2024/04/12 06:20:30;;;;;;;6.53;2.55;;;;;;;13.40;100.00;99800.00;5415336;26;20828;-67
2024/04/12 06:22:59;;;;;;;7.22;4.22;;;;;;;13.32;100.00;99797.22;5413235;26;20007;-64
2024/04/12 06:25:25;;;;;;;8.87;2.50;;;;;;;13.43;100.00;99804.97;5442149;26;20647;-67
2024/04/12 06:27:54;;;;;;;7.78;2.88;;;;;;;13.03;100.00;99763.16;5446127;26;20009;-67
2024/04/12 06:30:24;;;;;;;6.95;2.92;;;;;;;13.30;100.00;99801.72;5452369;26;20002;-68
2024/04/12 06:32:53;;;;;;;9.10;2.97;;;;;;;12.95;100.00;99773.44;5427155;26;20005;-69
2024/04/12 06:35:20;;;;;;;7.70;3.55;;;;;;;13.10;100.00;99795.59;5459902;26;19998;-65
2024/04/12 06:37:51;;;;;;;8.63;2.70;;;;;;;13.33;100.00;99796.28;5416544;26;19999;-66
2024/04/12 06:40:18;;;;;;;9.65;3.00;;;;;;;13.38;100.00;99809.75;5428073;26;20548;-66
2024/04/12 06:42:43;;;;;;;8.43;2.90;;;;;;;13.31;100.00;99798.19;5425636;26;20345;-66
2024/04/12 06:45:13;;;;;;;5.75;2.60;;;;;;;13.43;100.00;99802.34;5454439;26;20032;-65
2024/04/12 06:47:41;;;;;;;8.45;2.47;;;;;;;13.45;100.00;99789.97;5415645;26;19997;-66
2024/04/12 06:50:08;;;;;;;7.03;2.60;;;;;;;13.64;100.00;99785.75;5448407;26;19995;-65
2024/04/12 06:52:35;;;;;;;9.02;2.78;;;;;;;13.63;100.00;99784.94;5453159;26;20615;-65
2024/04/12 06:55:07;;;;;;;6.65;2.78;;;;;;;13.69;100.00;99788.78;5454137;26;20477;-65
2024/04/12 06:57:33;;;;;;;7.07;2.85;;;;;;;13.81;100.00;99792.06;5424854;26;19998;-66
2024/04/12 07:00:07;;;;;;;7.38;2.90;;;;;;;13.94;100.00;99797.84;5430816;26;20021;-66
2024/04/12 07:02:32;;;;;;;7.50;2.92;;;;;;;13.54;100.00;99743.09;5446099;26;20891;-65
2024/04/12 07:05:00;;;;;;;5.90;2.83;;;;;;;13.49;100.00;99793.16;5434774;26;20011;-69
2024/04/12 07:07:28;;;;;;;7.10;3.15;;;;;;;13.31;100.00;99787.75;5421119;26;20103;-68
2024/04/12 07:09:58;;;;;;;8.13;3.88;;;;;;;13.14;100.00;99767.44;5445120;26;20062;-65
2024/04/12 07:12:33;;;;;;;8.43;3.38;;;;;;;13.30;100.00;99759.94;5434746;26;20065;-65
2024/04/12 07:15:09;;;;;;;8.25;3.33;;;;;;;13.23;100.00;99793.59;5448808;26;19994;-67
2024/04/12 07:17:39;;;;;;;7.65;3.40;;;;;;;13.52;100.00;99787.63;5448683;26;20017;-67
2024/04/12 07:20:08;;;;;;;7.75;2.90;;;;;;;13.66;100.00;99781.19;5427053;26;20009;-67
2024/04/12 07:22:35;;;;;;;8.70;3.20;;;;;;;13.82;100.00;99789.34;5437330;26;19995;-66
2024/04/12 07:25:06;;;;;;;8.20;2.80;;;;;;;13.88;100.00;99787.97;5445382;26;20002;-65
2024/04/12 07:27:33;;;;;;;7.43;2.80;;;;;;;14.02;100.00;99782.31;5450424;26;20099;-68
2024/04/12 07:29:58;;;;;;;11.65;2.92;;;;;;;14.10;100.00;99793.88;5436008;26;19998;-66
2024/04/12 07:32:25;;;;;;;8.90;2.83;;;;;;;14.12;100.00;99799.78;5423060;26;20398;-65
2024/04/12 07:34:51;;;;;;;8.13;3.20;;;;;;;14.13;100.00;99791.00;5420100;26;20017;-66
2024/04/12 07:37:31;;;;;;;9.45;3.08;;;;;;;14.12;100.00;99795.38;5454467;26;20007;-65
2024/04/12 07:42:48;;;;;;;8.25;2.83;;;;;;;14.15;100.00;99794.28;5434550;26;20017;-67
2024/04/12 07:45:26;;;;;;;8.63;2.55;;;;;;;14.19;100.00;99791.25;5444529;26;19994;-67
2024/04/12 07:47:53;;;;;;;6.25;2.72;;;;;;;14.28;100.00;99796.63;5406911;26;19999;-66
2024/04/12 07:50:33;;;;;;;7.00;3.30;;;;;;;14.36;100.00;99789.72;5409347;26;20010;-65
2024/04/12 07:53:10;;;;;;;;;;;;;;;14.11;100.00;99785.06;5441573;26;20794;-64
2024/04/12 07:55:37;;;;;;;8.27;2.58;;;;;;;14.00;100.00;99786.88;5447565;26;19924;-64
2024/04/12 07:58:08;;;;;;;8.25;3.17;;;;;;;13.99;100.00;99787.00;5453374;26;20013;-65
2024/04/12 08:00:45;;;;;;;8.10;3.50;;;;;;;14.03;100.00;99783.94;5407082;26;19995;-65
2024/04/12 08:03:15;;;;;;;11.45;4.55;;;;;;;14.19;100.00;99788.63;5434394;26;19999;-66
2024/04/12 08:08:27;;;;;;;9.88;3.58;;;;;;;14.23;100.00;99792.63;5458618;26;20085;-64
2024/04/12 08:10:56;;;;;;;11.88;4.55;;;;;;;14.31;100.00;99793.72;5456427;26;20635;-65
2024/04/12 08:13:37;;;;;;;23.50;4.53;;;;;;;14.43;100.00;99782.13;5412981;26;20795;-65
2024/04/12 08:16:09;;;;;;;24.98;5.22;;;;;;;14.49;100.00;99786.78;5442251;26;20955;-66
2024/04/12 08:18:43;;;;;;;19.95;4.35;;;;;;;14.33;100.00;99763.84;5438409;26;20017;-65
2024/04/12 08:21:13;;;;;;;14.98;4.22;;;;;;;14.47;100.00;99801.81;5441680;26;20052;-67
2024/04/12 08:23:43;;;;;;;12.05;3.70;;;;;;;14.56;100.00;99802.75;5432576;26;20066;-65
2024/04/12 08:26:12;;;;;;;12.18;4.03;;;;;;;14.75;100.00;99809.78;5454095;26;20812;-65
2024/04/12 08:28:40;;;;;;;11.20;4.03;;;;;;;14.77;100.00;99798.19;5414360;26;20791;-66
2024/04/12 08:31:10;;;;;;;8.23;3.58;;;;;;;14.90;100.00;99800.50;5408103;26;20078;-66
2024/04/12 08:33:45;;;;;;;13.18;3.72;;;;;;;14.92;100.00;99798.56;5413025;26;20006;-67
2024/04/12 08:36:16;;;;;;;115.43;14.80;;;;;;;15.53;100.00;99804.19;5438828;26;20083;-66
2024/04/12 08:38:57;;;;;;;51.83;8.23;;;;;;;17.42;100.00;99801.09;5449798;26;20020;-66
2024/04/12 08:41:24;;;;;;;8.10;2.75;;;;;;;18.80;88.70;99809.22;5421308;26;19999;-67
2024/04/12 08:43:58;;;;;;;6.50;2.55;;;;;;;19.19;82.29;99799.75;5428742;26;20007;-66
2024/04/12 08:46:28;;;;;;;9.23;2.97;;;;;;;19.28;82.33;99795.25;5438222;26;19998;-66
2024/04/12 08:48:54;;;;;;;7.18;2.53;;;;;;;18.55;82.87;99761.06;5410615;26;19995;-71
2024/04/12 08:51:21;;;;;;;8.10;2.75;;;;;;;18.19;82.65;99786.94;5446405;26;19998;-71
2024/04/12 08:53:55;;;;;;;6.15;2.38;;;;;;;17.52;86.64;99794.88;5456664;26;20025;-69
2024/04/12 08:56:28;;;;;;;7.88;2.35;;;;;;;17.20;85.78;99797.25;5451564;26;20033;-70
2024/04/12 08:59:05;;;;;;;8.88;2.85;;;;;;;16.98;87.46;99782.88;5443226;26;20010;-71
2024/04/12 09:01:31;;;;;;;7.85;2.85;;;;;;;17.17;88.23;99797.56;5424300;26;19990;-69
2024/04/12 09:04:04;;;;;;;6.07;2.45;;;;;;;17.22;89.46;99776.91;5448322;26;19998;-70
2024/04/12 09:06:35;;;;;;;6.25;2.30;;;;;;;17.21;86.68;99790.19;5421849;26;19998;-70
2024/04/12 09:09:04;;;;;;;6.07;2.08;;;;;;;17.09;85.50;99777.34;5452680;26;20026;-69
2024/04/12 09:11:31;;;;;;;5.07;2.17;;;;;;;17.05;85.83;99783.91;5417248;26;20023;-70
2024/04/12 09:14:08;;;;;;;9.25;2.60;;;;;;;17.10;87.75;99784.25;5413481;26;20092;-73
2024/04/12 09:16:44;;;;;;;8.45;2.45;;;;;;;17.33;85.73;99783.66;5422041;26;19999;-71
2024/04/12 09:19:14;;;;;;;6.65;2.15;;;;;;;17.38;83.97;99786.66;5415907;26;20017;-68
2024/04/12 09:21:47;;;;;;;;;;;;;;;17.48;83.77;99787.31;5421731;26;20010;-69
2024/04/12 09:24:21;;;;;;;9.32;2.50;;;;;;;17.59;82.27;99788.81;5429091;26;19937;-70
2024/04/12 09:26:59;;;;;;;8.52;2.00;;;;;;;17.71;77.43;99784.09;5462673;26;20551;-68
2024/04/12 09:29:27;;;;;;;6.03;2.22;;;;;;;17.76;78.38;99776.53;5427288;26;19998;-70
2024/04/12 09:34:41;;;;;;;5.30;1.85;;;;;;;17.93;75.30;99772.13;5444857;26;20080;-69
2024/04/12 09:42:28;;;;;;;7.30;1.98;;;;;;;18.41;74.27;99749.38;5436960;26;19999;-71
2024/04/12 09:45:00;;;;;;;7.03;2.53;;;;;;;18.67;75.38;99773.84;5424301;26;21558;-70
2024/04/12 10:37:23;;;;;;;7.93;2.25;;;;;;;20.10;64.69;99703.16;5458367;26;20043;-70
2024/04/12 10:39:52;;;;;;;5.70;1.95;;;;;;;20.00;61.11;99675.38;5439621;26;20033;-70
2024/04/12 10:42:25;;;;;;;8.00;2.28;;;;;;;20.36;65.28;99715.13;5426275;26;19998;-71
2024/04/12 10:44:56;;;;;;;8.30;2.40;;;;;;;20.51;64.26;99701.91;5439856;26;20118;-70
2024/04/12 10:47:23;;;;;;;7.10;2.40;;;;;;;19.97;65.90;99658.91;5453603;26;19999;-71
2024/04/12 10:49:56;;;;;;;7.68;2.20;;;;;;;19.97;65.26;99666.81;5452037;26;19998;-69
2024/04/12 10:52:30;;;;;;;8.15;2.40;;;;;;;20.02;68.83;99670.75;5446309;26;20367;-72
2024/04/12 10:55:09;;;;;;;7.70;2.05;;;;;;;20.28;68.55;99709.91;5477326;26;19994;-70
2024/04/12 10:57:47;;;;;;;9.02;1.95;;;;;;;20.20;63.12;99702.09;5451784;26;20374;-71
2024/04/12 11:00:16;;;;;;;6.63;2.08;;;;;;;20.31;64.74;99699.81;5422185;26;19991;-70
2024/04/12 11:02:44;;;;;;;9.40;3.38;;;;;;;20.47;61.59;99664.47;5450509;26;20041;-69
2024/04/12 11:07:52;;;;;;;5.65;2.50;;;;;;;20.97;62.70;99677.09;5458771;26;20041;-69
2024/04/12 11:10:25;;;;;;;7.07;2.80;;;;;;;21.06;61.12;99654.81;5447960;26;20009;-69
2024/04/12 11:12:59;;;;;;;7.22;2.58;;;;;;;21.24;57.63;99667.63;5453263;26;20865;-68
2024/04/12 11:31:47;;;;;;;9.52;2.80;;;;;;;22.08;57.20;99640.44;5458611;26;20131;-71
2024/04/12 11:34:20;;;;;;;6.63;2.67;;;;;;;22.11;57.22;99644.53;5424143;26;20449;-71
2024/04/12 11:36:46;;;;;;;6.50;2.47;;;;;;;22.34;56.26;99613.31;5422794;26;20709;-71
2024/04/12 11:39:17;;;;;;;6.60;2.50;;;;;;;22.31;55.60;99636.75;5449275;26;19991;-70
2024/04/12 11:41:46;;;;;;;8.95;2.75;;;;;;;22.51;55.31;99647.44;5452473;26;20341;-71
2024/04/12 11:44:17;;;;;;;5.90;2.70;;;;;;;22.49;55.43;99639.69;5441102;26;20013;-72
2024/04/12 11:46:47;;;;;;;7.93;2.70;;;;;;;22.38;54.81;99621.66;5458243;26;20007;-71
2024/04/12 11:49:25;;;;;;;9.70;2.88;;;;;;;22.59;55.49;99621.56;5418775;26;20829;-70
2024/04/12 11:52:03;;;;;;;5.88;2.42;;;;;;;22.38;55.13;99616.38;5449884;26;20011;-68
2024/04/12 11:54:34;;;;;;;6.50;2.47;;;;;;;22.41;56.23;99586.84;5445479;26;20022;-70
2024/04/12 11:57:05;;;;;;;7.85;2.50;;;;;;;22.65;56.21;99618.13;5421348;26;20006;-70
2024/04/12 11:59:31;;;;;;;7.85;2.80;;;;;;;22.71;54.82;99613.84;5445807;26;20492;-69
2024/04/12 12:01:59;;;;;;;6.43;2.60;;;;;;;22.57;55.61;99586.50;5456789;26;20026;-72
2024/04/12 12:04:28;;;;;;;7.18;2.78;;;;;;;22.75;54.72;99609.78;5477765;26;20346;-67
2024/04/12 12:06:54;;;;;;;5.38;2.50;;;;;;;22.80;55.24;99615.31;5454832;26;20462;-69
2024/04/12 12:09:20;;;;;;;6.82;2.55;;;;;;;22.76;54.00;99608.78;5451411;26;20310;-66
2024/04/12 12:11:51;;;;;;;7.75;2.63;;;;;;;22.88;52.24;99595.75;5455352;26;20009;-67
2024/04/12 12:14:17;;;;;;;6.75;2.50;;;;;;;22.95;54.31;99593.94;5446723;26;19998;-68
2024/04/12 12:16:43;;;;;;;7.32;2.70;;;;;;;23.00;50.95;99593.34;5417253;26;20037;-69
2024/04/12 12:19:08;;;;;;;7.72;2.80;;;;;;;23.17;52.38;99588.47;5450956;26;20039;-71
2024/04/12 12:21:34;;;;;;;7.20;2.70;;;;;;;22.93;52.92;99580.06;5455567;26;19998;-70
2024/04/12 12:24:03;;;;;;;7.00;2.78;;;;;;;23.02;52.34;99583.34;5454143;26;20074;-66
2024/04/12 12:26:35;;;;;;;6.85;2.60;;;;;;;23.05;52.26;99590.09;5455731;26;19994;-70
2024/04/12 12:29:01;;;;;;;5.88;2.50;;;;;;;23.16;53.24;99584.19;5429836;26;20002;-68
2024/04/12 12:31:27;;;;;;;7.30;2.50;;;;;;;23.10;51.57;99556.63;5459219;26;20013;-69
2024/04/12 12:33:53;;;;;;;41.35;6.80;;;;;;;23.15;51.21;99540.13;5453764;26;20006;-70
2024/04/12 12:36:21;;;;;;;6.80;3.10;;;;;;;23.36;51.29;99571.72;5453780;26;20536;-68
2024/04/12 12:38:48;;;;;;;7.18;2.55;;;;;;;23.43;50.31;99563.78;5428641;26;20009;-68
2024/04/12 12:41:14;;;;;;;12.15;3.75;;;;;;;23.52;50.69;99567.03;5456364;26;20407;-70
2024/04/12 12:43:44;;;;;;;14.30;4.50;;;;;;;23.38;50.06;99560.91;5425710;26;20000;-70
2024/04/12 12:46:13;;;;;;;11.32;3.75;;;;;;;23.30;49.31;99540.72;5392968;26;20101;-69
2024/04/12 12:48:41;;;;;;;7.80;2.80;;;;;;;23.53;50.02;99558.03;5431073;26;20083;-69
2024/04/12 12:51:09;;;;;;;7.07;2.83;;;;;;;23.57;50.47;99554.78;5403532;26;20022;-71
2024/04/12 12:53:39;;;;;;;6.90;2.72;;;;;;;23.69;47.67;99546.19;5433305;26;19999;-68
2024/04/12 12:56:07;;;;;;;6.28;2.47;;;;;;;23.76;49.77;99534.50;5470241;26;20003;-69
2024/04/12 12:58:37;;;;;;;6.93;2.47;;;;;;;23.75;48.23;99513.50;5430656;26;20049;-69
2024/04/12 13:01:07;;;;;;;9.63;2.85;;;;;;;24.02;49.61;99534.69;5458226;26;19995;-68